MSC Alexa — 3FPP6 — position and weather

sailwx.info

Track history (hours):
 
Tides and Currents Weather Stations Pressure Air Temp Water Temp Dewpoint Dewpoint Depression Visibility Wind Speed Wind Dir Waves Ship Positions

MSC Alexa

Last reported at 2017-Mar-19 10:32 UTC. Time now 2017-Mar-23 14:23 UTC.
Position N 01°14' E 103°59'.

Length 243 m; draft 10.7 m.

Type: Ship (hazmat cat A). MMSI: 356904000.

Date/timePositionNaut miles runAvg speedWind from/ knotsBaromVisibWave heightAir tempDewpointWater temp
2017-Mar-19 10:32N 01°14' E 103°59'1211.9
2017-Mar-19 09:33N 01°13' E 103°48'4 3.9
2017-Mar-19 08:32N 01°16' E 103°46'0 0.0
2017-Mar-19 07:28N 01°16' E 103°46'0 0.0
2017-Mar-19 06:25N 01°16' E 103°46'0 0.0
2017-Mar-19 05:33N 01°16' E 103°46'0 0.0
2017-Mar-19 04:33N 01°16' E 103°46'0 0.0
2017-Mar-19 03:29N 01°16' E 103°46'0 0.0
2017-Mar-19 02:32N 01°16' E 103°46'0 0.0
2017-Mar-19 01:29N 01°16' E 103°46'0 0.0
2017-Mar-19 00:31N 01°16' E 103°46'0 0.0
2017-Mar-18 23:31N 01°16' E 103°46'0 0.0
2017-Mar-18 22:21N 01°16' E 103°46'0 0.0
2017-Mar-18 21:33N 01°16' E 103°46'0 0.0
2017-Mar-18 20:32N 01°16' E 103°46'0 0.0
2017-Mar-18 19:29N 01°16' E 103°46'0 0.0
2017-Mar-18 18:32N 01°16' E 103°46'0 0.0
2017-Mar-18 17:31N 01°16' E 103°46'0 0.0
2017-Mar-18 16:31N 01°16' E 103°46'0 0.0
2017-Mar-18 15:33N 01°16' E 103°46'0 0.0
2017-Mar-18 14:33N 01°16' E 103°46'0 0.0
2017-Mar-18 13:33N 01°16' E 103°46'3 3.2
2017-Mar-18 12:34N 01°14' E 103°43'8 7.1
2017-Mar-18 11:30N 01°13' E 103°36'5 3.8
2017-Mar-18 10:07N 01°14' E 103°31'2 1.0
2017-Mar-18 08:33N 01°15' E 103°32'7 6.2
2017-Mar-18 07:22N 01°22' E 103°33'0 0.0
2017-Mar-18 06:31N 01°22' E 103°33'0 0.0
2017-Mar-18 05:34N 01°22' E 103°33'0 0.0
2017-Mar-18 04:33N 01°22' E 103°33'0 0.0
2017-Mar-18 03:24N 01°22' E 103°33'0 0.0
2017-Mar-18 02:29N 01°22' E 103°33'0 0.0
2017-Mar-18 01:20N 01°22' E 103°33'0 0.0
2017-Mar-18 00:25N 01°22' E 103°33'0 0.0
2017-Mar-17 23:31N 01°22' E 103°33'0 0.0
2017-Mar-17 21:30N 01°22' E 103°33'0 0.0
2017-Mar-17 20:33N 01°22' E 103°33'0 0.0
2017-Mar-17 19:29N 01°22' E 103°33'0 0.0
2017-Mar-17 18:32N 01°22' E 103°33'0 0.0
2017-Mar-17 17:28N 01°22' E 103°33'0 0.0
2017-Mar-17 16:28N 01°22' E 103°33'0 0.0
2017-Mar-17 15:33N 01°22' E 103°33'0 0.0
2017-Mar-17 14:27N 01°22' E 103°33'0 0.5
2017-Mar-17 13:33N 01°22' E 103°33'6 5.3
2017-Mar-17 12:23N 01°15' E 103°33'0 0.0
2017-Mar-17 11:20N 01°15' E 103°33'0 0.2
2017-Mar-17 10:13N 01°15' E 103°33'0 0.0
2017-Mar-17 09:22N 01°15' E 103°33'0 0.2
2017-Mar-17 08:33N 01°15' E 103°33'0 0.1
2017-Mar-17 07:33N 01°15' E 103°33'0 0.0
2017-Mar-17 06:32N 01°15' E 103°33'0 0.2
2017-Mar-17 05:33N 01°15' E 103°33'8 7.8
2017-Mar-17 04:33N 01°11' E 103°40'1111.3
2017-Mar-17 03:34N 01°12' E 103°51'1010.3
2017-Mar-17 02:33N 01°15' E 104°00'  
2017-Mar-11 15:33N 01°15' E 104°05'1414.5
2017-Mar-11 14:33N 01°11' E 103°51'7 6.7
2017-Mar-11 13:30N 01°16' E 103°46'0 0.0
2017-Mar-11 12:33N 01°16' E 103°46'0 0.0
2017-Mar-11 11:32N 01°16' E 103°46'0 0.0
2017-Mar-11 10:32N 01°16' E 103°46'0 0.0
2017-Mar-11 09:28N 01°16' E 103°46'0 0.0
2017-Mar-11 08:28N 01°16' E 103°46'0 0.0
2017-Mar-11 07:33N 01°16' E 103°46'0 0.0
2017-Mar-11 06:33N 01°16' E 103°46'0 0.0
2017-Mar-11 05:33N 01°16' E 103°46'0 0.0
2017-Mar-11 04:31N 01°16' E 103°46'0 0.0
2017-Mar-11 03:32N 01°16' E 103°46'0 0.0
2017-Mar-11 02:31N 01°16' E 103°46'0 0.0
2017-Mar-11 01:31N 01°16' E 103°46'0 0.0
2017-Mar-11 00:33N 01°16' E 103°46'0 0.0
2017-Mar-10 23:33N 01°16' E 103°46'0 0.0
2017-Mar-10 22:33N 01°16' E 103°46'0 0.0
2017-Mar-10 21:32N 01°16' E 103°46'0 0.0
2017-Mar-10 20:29N 01°16' E 103°46'0 0.3
2017-Mar-10 19:34N 01°16' E 103°46'2 2.4
2017-Mar-10 18:33N 01°14' E 103°47'0 0.1
2017-Mar-10 17:33N 01°14' E 103°47'4 4.4
2017-Mar-10 16:33N 01°13' E 103°51'8 7.4
2017-Mar-10 15:32N 01°15' E 103°58'  
Track history (hours):
 
Tides and Currents Weather Stations Pressure Air Temp Water Temp Dewpoint Dewpoint Depression Visibility Wind Speed Wind Dir Waves Ship Positions

MSC Alexa

Last reported at 2017-Mar-19 10:32 UTC. Time now 2017-Mar-23 14:23 UTC.
Position N 01°14' E 103°59'.

Length 243 m; draft 10.7 m.

Type: Ship (hazmat cat A). MMSI: 356904000.

Date/timePositionNaut miles runAvg speedWind from/ knotsBaromVisibWave heightAir tempDewpointWater temp
2017-Mar-19 10:32N 01°14' E 103°59'1211.9
2017-Mar-19 09:33N 01°13' E 103°48'4 3.9
2017-Mar-19 08:32N 01°16' E 103°46'0 0.0
2017-Mar-19 07:28N 01°16' E 103°46'0 0.0
2017-Mar-19 06:25N 01°16' E 103°46'0 0.0
2017-Mar-19 05:33N 01°16' E 103°46'0 0.0
2017-Mar-19 04:33N 01°16' E 103°46'0 0.0
2017-Mar-19 03:29N 01°16' E 103°46'0 0.0
2017-Mar-19 02:32N 01°16' E 103°46'0 0.0
2017-Mar-19 01:29N 01°16' E 103°46'0 0.0
2017-Mar-19 00:31N 01°16' E 103°46'0 0.0
2017-Mar-18 23:31N 01°16' E 103°46'0 0.0
2017-Mar-18 22:21N 01°16' E 103°46'0 0.0
2017-Mar-18 21:33N 01°16' E 103°46'0 0.0
2017-Mar-18 20:32N 01°16' E 103°46'0 0.0
2017-Mar-18 19:29N 01°16' E 103°46'0 0.0
2017-Mar-18 18:32N 01°16' E 103°46'0 0.0
2017-Mar-18 17:31N 01°16' E 103°46'0 0.0
2017-Mar-18 16:31N 01°16' E 103°46'0 0.0
2017-Mar-18 15:33N 01°16' E 103°46'0 0.0
2017-Mar-18 14:33N 01°16' E 103°46'0 0.0
2017-Mar-18 13:33N 01°16' E 103°46'3 3.2
2017-Mar-18 12:34N 01°14' E 103°43'8 7.1
2017-Mar-18 11:30N 01°13' E 103°36'5 3.8
2017-Mar-18 10:07N 01°14' E 103°31'2 1.0
2017-Mar-18 08:33N 01°15' E 103°32'7 6.2
2017-Mar-18 07:22N 01°22' E 103°33'0 0.0
2017-Mar-18 06:31N 01°22' E 103°33'0 0.0
2017-Mar-18 05:34N 01°22' E 103°33'0 0.0
2017-Mar-18 04:33N 01°22' E 103°33'0 0.0
2017-Mar-18 03:24N 01°22' E 103°33'0 0.0
2017-Mar-18 02:29N 01°22' E 103°33'0 0.0
2017-Mar-18 01:20N 01°22' E 103°33'0 0.0
2017-Mar-18 00:25N 01°22' E 103°33'0 0.0
2017-Mar-17 23:31N 01°22' E 103°33'0 0.0
2017-Mar-17 21:30N 01°22' E 103°33'0 0.0
2017-Mar-17 20:33N 01°22' E 103°33'0 0.0
2017-Mar-17 19:29N 01°22' E 103°33'0 0.0
2017-Mar-17 18:32N 01°22' E 103°33'0 0.0
2017-Mar-17 17:28N 01°22' E 103°33'0 0.0
2017-Mar-17 16:28N 01°22' E 103°33'0 0.0
2017-Mar-17 15:33N 01°22' E 103°33'0 0.0
2017-Mar-17 14:27N 01°22' E 103°33'0 0.5
2017-Mar-17 13:33N 01°22' E 103°33'6 5.3
2017-Mar-17 12:23N 01°15' E 103°33'0 0.0
2017-Mar-17 11:20N 01°15' E 103°33'0 0.2
2017-Mar-17 10:13N 01°15' E 103°33'0 0.0
2017-Mar-17 09:22N 01°15' E 103°33'0 0.2
2017-Mar-17 08:33N 01°15' E 103°33'0 0.1
2017-Mar-17 07:33N 01°15' E 103°33'0 0.0
2017-Mar-17 06:32N 01°15' E 103°33'0 0.2
2017-Mar-17 05:33N 01°15' E 103°33'8 7.8
2017-Mar-17 04:33N 01°11' E 103°40'1111.3
2017-Mar-17 03:34N 01°12' E 103°51'1010.3
2017-Mar-17 02:33N 01°15' E 104°00'  
2017-Mar-11 15:33N 01°15' E 104°05'1414.5
2017-Mar-11 14:33N 01°11' E 103°51'7 6.7
2017-Mar-11 13:30N 01°16' E 103°46'0 0.0
2017-Mar-11 12:33N 01°16' E 103°46'0 0.0
2017-Mar-11 11:32N 01°16' E 103°46'0 0.0
2017-Mar-11 10:32N 01°16' E 103°46'0 0.0
2017-Mar-11 09:28N 01°16' E 103°46'0 0.0
2017-Mar-11 08:28N 01°16' E 103°46'0 0.0
2017-Mar-11 07:33N 01°16' E 103°46'0 0.0
2017-Mar-11 06:33N 01°16' E 103°46'0 0.0
2017-Mar-11 05:33N 01°16' E 103°46'0 0.0
2017-Mar-11 04:31N 01°16' E 103°46'0 0.0
2017-Mar-11 03:32N 01°16' E 103°46'0 0.0
2017-Mar-11 02:31N 01°16' E 103°46'0 0.0
2017-Mar-11 01:31N 01°16' E 103°46'0 0.0
2017-Mar-11 00:33N 01°16' E 103°46'0 0.0
2017-Mar-10 23:33N 01°16' E 103°46'0 0.0
2017-Mar-10 22:33N 01°16' E 103°46'0 0.0
2017-Mar-10 21:32N 01°16' E 103°46'0 0.0
2017-Mar-10 20:29N 01°16' E 103°46'0 0.3
2017-Mar-10 19:34N 01°16' E 103°46'2 2.4
2017-Mar-10 18:33N 01°14' E 103°47'0 0.1
2017-Mar-10 17:33N 01°14' E 103°47'4 4.4
2017-Mar-10 16:33N 01°13' E 103°51'8 7.4
2017-Mar-10 15:32N 01°15' E 103°58'  

Dump ship's entire track history